Impacts METAR Board
IDs:

KMSP - Minneapolis-St Paul, MN, US

Updated at: 2100 UTC 20 Jun 2019
Potential Impact None Slight Moderate High
Time 20/09Z 20/10Z 20/11Z 20/12Z 20/13Z 20/14Z 20/15Z 20/16Z 20/17Z 20/18Z 20/19Z 20/20Z 20/21Z
Temp66 65 64 65 66 68 69 73 73 77 69 68 65
Dewpt50 50 51 52 54 56 55 55 55 54 57 58 60
Altim29.75 29.76 29.76 29.75 29.79 29.80 29.77 29.78 29.78 29.77 29.78 29.81 29.83
VIS10 10 10 10 10 10 10 10 10 10 10 10 6
CIG170 130 130 -- 130 120 120 250 250 250 70 60 50
CoverOVCOVCBKNSCTBKNBKNBKNBKNBKNBKNBKNOVCOVC
FltCatVFRVFRVFRVFRVFRVFRVFRVFRVFRVFRVFRVFRVFR
WX------------------------RA
WDir60709090110130110130120130170180210
WSpd5 4 6 9 8 10 14 12 10 11 17 9 7
WGst-- -- -- -- -- -- 19 -- 17 18 -- -- --
Raw hourly METARs
KMSP 200853Z 06005KT 10SM OVC170 19/10 A2975 RMK AO2 SLP069 T01890100 53002
KMSP 200953Z 07004KT 10SM OVC130 18/10 A2976 RMK AO2 SLP074 T01830100
KMSP 201053Z 09006KT 10SM BKN130 18/11 A2976 RMK AO2 SLP075 T01780106
KMSP 201153Z 09009KT 10SM SCT130 18/11 A2975 RMK AO2 SLP072 T01830111 10206 20178 50002
KMSP 201253Z 11008KT 10SM FEW120 BKN130 BKN150 19/12 A2979 RMK AO2 SLP085 T01890122
KMSP 201353Z 13010KT 10SM BKN120 BKN130 20/13 A2980 RMK AO2 SLP086 T02000133
KMSP 201453Z 11014G19KT 10SM BKN120 BKN130 21/13 A2977 RMK AO2 SLP078 T02060128 50006
KMSP 201553Z 13012KT 10SM FEW040 FEW120 BKN250 23/13 A2978 RMK AO2 SLP081 TCU DSNT S T02280128
KMSP 201653Z 12010G17KT 10SM FEW034 SCT085 BKN250 23/13 A2978 RMK AO2 SLP080 TCU DSNT S T02280128
KMSP 201753Z 13011G18KT 10SM SCT040 SCT050 BKN250 25/12 A2977 RMK AO2 LTG DSNT S SLP077 CB DSNT S T02500122 10250 20183 58000
KMSP 201853Z 17017KT 10SM FEW046 SCT055 BKN070 BKN250 21/14 A2978 RMK AO2 SLP083 PRESENT WX VCSH T02060139
KMSP 201953Z 18009KT 10SM OVC060 20/14 A2981 RMK AO2 SLP091 PRESENT WX VCSH T02000144
KMSP 202053Z 21007KT 6SM RA BKN050 OVC090 18/16 A2983 RMK AO2 RAB05 SLP100 P0008 60008 T01830156 53020



Page loaded:  21:05 UTC  |   02:05 PM Pacific  |   03:05 PM Mountain  |   04:05 PM Central  |   05:05 PM Eastern

 

ADVISORIES

FORECASTS

FORECASTS

OBSERVATIONS

USER TOOLS

ABOUT US